createdAt,value
2023-04-09T00:01:25.652Z,87.10
2023-04-09T00:03:55.227Z,87.00
2023-04-09T00:06:23.340Z,87.00
2023-04-09T00:08:51.598Z,87.20
2023-04-09T00:11:19.795Z,87.20
2023-04-09T00:13:47.777Z,87.20
2023-04-09T00:16:15.908Z,87.20
2023-04-09T00:18:43.870Z,87.10
2023-04-09T00:21:13.206Z,87.30
2023-04-09T00:23:41.869Z,87.50
2023-04-09T00:26:10.441Z,87.40
2023-04-09T00:28:39.064Z,87.40
2023-04-09T00:31:07.552Z,87.50
2023-04-09T00:33:35.518Z,87.60
2023-04-09T00:36:03.566Z,87.70
2023-04-09T00:38:32.951Z,87.80
2023-04-09T00:41:00.935Z,88.10
2023-04-09T00:43:29.011Z,88.10
2023-04-09T00:45:57.181Z,88.10
2023-04-09T00:48:25.524Z,88.10
2023-04-09T00:50:53.557Z,88.10
2023-04-09T00:53:21.626Z,88.20
2023-04-09T00:55:51.028Z,88.00
2023-04-09T00:58:19.054Z,87.90
2023-04-09T01:00:47.514Z,88.00
2023-04-09T01:03:15.946Z,87.70
2023-04-09T01:05:52.541Z,87.90
2023-04-09T01:08:31.318Z,87.90
2023-04-09T01:11:07.192Z,87.90
2023-04-09T01:13:47.383Z,87.40
2023-04-09T01:16:18.744Z,87.50
2023-04-09T01:18:51.791Z,87.50
2023-04-09T01:21:24.222Z,87.30
2023-04-09T01:24:00.848Z,87.30
2023-04-09T01:26:54.688Z,87.20
2023-04-09T01:29:31.430Z,86.70
2023-04-09T01:32:01.695Z,86.90
2023-04-09T01:34:30.633Z,87.40
2023-04-09T01:37:01.743Z,87.50
2023-04-09T01:39:30.452Z,87.40
2023-04-09T01:41:58.832Z,87.60
2023-04-09T01:44:29.482Z,87.40
2023-04-09T01:46:59.135Z,87.60
2023-04-09T01:49:27.777Z,87.50
2023-04-09T01:51:56.035Z,87.40
2023-04-09T01:54:24.217Z,87.30
2023-04-09T01:56:52.312Z,87.10
2023-04-09T01:59:20.322Z,86.90
2023-04-09T02:01:54.786Z,86.80
2023-04-09T02:04:27.821Z,86.80
2023-04-09T02:07:00.455Z,86.70
2023-04-09T02:09:32.613Z,86.60
2023-04-09T02:12:05.224Z,86.50
2023-04-09T02:14:34.161Z,86.40
2023-04-09T02:17:04.056Z,86.30
2023-04-09T02:19:40.556Z,86.10
2023-04-09T02:22:08.918Z,86.10
2023-04-09T02:24:37.393Z,86.10
2023-04-09T02:27:06.122Z,86.10
2023-04-09T02:29:35.400Z,86.20
2023-04-09T02:32:04.841Z,86.20
2023-04-09T02:34:32.856Z,86.30
2023-04-09T02:37:00.884Z,86.30
2023-04-09T02:39:28.994Z,86.10
2023-04-09T02:41:57.835Z,86.20
2023-04-09T02:44:28.139Z,86.10
2023-04-09T02:46:57.219Z,86.00
2023-04-09T02:49:26.618Z,86.10
2023-04-09T02:51:54.688Z,86.30
2023-04-09T02:54:22.776Z,86.20
2023-04-09T02:56:50.775Z,86.40
2023-04-09T02:59:18.755Z,86.40
2023-04-09T03:01:46.878Z,86.30
2023-04-09T03:04:15.164Z,86.30
2023-04-09T03:06:44.504Z,86.30
2023-04-09T03:09:12.522Z,86.40
2023-04-09T03:11:40.692Z,86.20
2023-04-09T03:14:08.911Z,86.40
2023-04-09T03:16:36.855Z,86.40
2023-04-09T03:19:04.893Z,86.30
2023-04-09T03:21:33.153Z,86.20
2023-04-09T03:24:02.679Z,86.20
2023-04-09T03:26:36.026Z,86.20
2023-04-09T03:29:06.746Z,86.60
2023-04-09T03:31:35.175Z,86.50
2023-04-09T03:34:03.209Z,86.50
2023-04-09T03:36:33.168Z,86.50
2023-04-09T03:39:06.797Z,86.40
2023-04-09T03:41:40.569Z,86.30
2023-04-09T03:44:12.567Z,86.10
2023-04-09T03:46:54.812Z,86.10
2023-04-09T03:49:23.666Z,86.10
2023-04-09T03:51:51.823Z,86.00
2023-04-09T03:54:21.592Z,86.00
2023-04-09T03:56:49.817Z,86.00
2023-04-09T03:59:22.496Z,85.90
2023-04-09T04:01:50.879Z,86.00
2023-04-09T04:04:21.251Z,86.00
2023-04-09T04:06:55.872Z,86.10
2023-04-09T04:09:45.493Z,85.90
2023-04-09T04:12:16.867Z,86.10
2023-04-09T04:15:02.236Z,86.10
2023-04-09T04:17:53.166Z,86.10
2023-04-09T04:20:38.867Z,86.10
2023-04-09T04:23:13.455Z,86.10
2023-04-09T04:25:57.024Z,86.20
2023-04-09T04:28:35.009Z,85.70
2023-04-09T04:31:03.192Z,86.10
2023-04-09T04:33:34.087Z,86.10
2023-04-09T04:36:09.193Z,86.20
2023-04-09T04:38:42.176Z,86.10
2023-04-09T04:41:18.281Z,86.10
2023-04-09T04:43:53.633Z,86.00
2023-04-09T04:46:24.235Z,85.90
2023-04-09T04:48:52.608Z,85.90
2023-04-09T04:51:22.369Z,85.90
2023-04-09T04:54:11.715Z,86.10
2023-04-09T04:56:42.024Z,86.00
2023-04-09T04:59:18.868Z,86.00
2023-04-09T05:01:58.970Z,86.10
2023-04-09T05:04:28.827Z,86.10
2023-04-09T05:06:57.967Z,86.10
2023-04-09T05:09:27.040Z,86.00
2023-04-09T05:12:02.542Z,86.00
2023-04-09T05:14:30.816Z,85.90
2023-04-09T05:16:59.154Z,85.90
2023-04-09T05:19:33.669Z,85.90
2023-04-09T05:22:04.095Z,85.80
2023-04-09T05:24:32.581Z,85.80
2023-04-09T05:27:02.270Z,85.80
2023-04-09T05:29:31.020Z,85.80
2023-04-09T05:32:00.741Z,85.80
2023-04-09T05:34:33.534Z,85.90
2023-04-09T05:37:01.821Z,85.90
2023-04-09T05:39:30.251Z,85.90
2023-04-09T05:42:02.134Z,85.90
2023-04-09T05:44:40.824Z,86.10
2023-04-09T05:47:14.478Z,86.00
2023-04-09T05:49:56.961Z,85.90
2023-04-09T05:52:25.165Z,86.00
2023-04-09T05:54:53.786Z,86.10
2023-04-09T05:57:30.437Z,86.10
2023-04-09T06:00:01.353Z,86.20
2023-04-09T06:02:29.562Z,86.20
2023-04-09T06:04:57.575Z,86.20
2023-04-09T06:07:26.272Z,86.00
2023-04-09T06:09:54.653Z,86.00
2023-04-09T06:12:22.723Z,86.00
2023-04-09T06:14:52.136Z,86.00
2023-04-09T06:17:20.063Z,86.00
2023-04-09T06:19:48.092Z,86.10
2023-04-09T06:22:16.331Z,86.10
2023-04-09T06:24:44.308Z,86.00
2023-04-09T06:27:12.325Z,86.00
2023-04-09T06:29:40.339Z,86.10
2023-04-09T06:32:09.877Z,86.20
2023-04-09T06:34:37.948Z,86.10
2023-04-09T06:37:06.004Z,86.10
2023-04-09T06:39:34.067Z,85.90
2023-04-09T06:42:03.703Z,85.90
2023-04-09T06:44:40.932Z,85.50
2023-04-09T06:47:10.295Z,85.00
2023-04-09T06:49:38.245Z,84.90
2023-04-09T06:52:07.289Z,84.80
2023-04-09T06:54:35.795Z,84.90
2023-04-09T06:57:03.783Z,84.80
2023-04-09T06:59:32.043Z,84.70
2023-04-09T07:02:00.605Z,84.50
2023-04-09T07:04:30.216Z,84.50
2023-04-09T07:06:59.254Z,84.70
2023-04-09T07:09:27.259Z,84.10
2023-04-09T07:11:55.671Z,84.30
2023-04-09T07:14:23.749Z,84.30
2023-04-09T07:16:51.790Z,84.10
2023-04-09T07:19:19.841Z,83.90
2023-04-09T07:21:49.198Z,83.60
2023-04-09T07:24:17.280Z,83.40
2023-04-09T07:26:45.410Z,83.10
2023-04-09T07:29:13.411Z,83.00
2023-04-09T07:31:41.494Z,82.70
2023-04-09T07:34:09.484Z,82.30
2023-04-09T07:36:37.453Z,82.30
2023-04-09T07:39:06.843Z,81.50
2023-04-09T07:41:34.867Z,81.70
2023-04-09T07:44:03.910Z,81.20
2023-04-09T07:46:31.953Z,81.40
2023-04-09T07:48:59.991Z,81.30
2023-04-09T07:51:28.059Z,80.50
2023-04-09T07:53:56.106Z,80.50
2023-04-09T07:56:25.673Z,80.10
2023-04-09T07:58:53.930Z,80.10
2023-04-09T08:01:24.712Z,79.70
2023-04-09T08:03:52.941Z,79.20
2023-04-09T08:06:21.124Z,79.00
2023-04-09T08:08:49.165Z,78.90
2023-04-09T08:11:22.143Z,79.20
2023-04-09T08:13:51.528Z,78.60
2023-04-09T08:16:19.745Z,78.50
2023-04-09T08:18:47.936Z,78.00
2023-04-09T08:21:16.328Z,77.60
2023-04-09T08:23:44.482Z,77.80
2023-04-09T08:26:12.472Z,77.30
2023-04-09T08:28:40.479Z,76.40
2023-04-09T08:31:10.621Z,76.30
2023-04-09T08:33:38.735Z,75.80
2023-04-09T08:36:11.342Z,75.70
2023-04-09T08:38:39.482Z,75.40
2023-04-09T08:41:07.685Z,75.10
2023-04-09T08:43:53.256Z,75.10
2023-04-09T08:46:27.260Z,75.10
2023-04-09T08:48:55.813Z,74.90
2023-04-09T08:51:25.666Z,74.00
2023-04-09T08:53:58.367Z,73.10
2023-04-09T08:56:27.257Z,73.40
2023-04-09T08:58:56.690Z,71.80
2023-04-09T09:01:27.645Z,71.50
2023-04-09T09:03:58.040Z,72.50
2023-04-09T09:06:28.746Z,72.10
2023-04-09T09:09:10.659Z,70.90
2023-04-09T09:11:40.331Z,71.20
2023-04-09T09:14:09.429Z,70.40
2023-04-09T09:16:42.853Z,70.80
2023-04-09T09:19:11.697Z,70.40
2023-04-09T09:21:40.892Z,69.90
2023-04-09T09:24:18.808Z,70.30
2023-04-09T09:26:46.741Z,70.20
2023-04-09T09:29:14.776Z,69.90
2023-04-09T09:31:50.145Z,70.80
2023-04-09T09:34:18.530Z,70.60
2023-04-09T09:36:47.352Z,71.50
2023-04-09T09:39:17.485Z,70.30
2023-04-09T09:41:47.241Z,69.50
2023-04-09T09:44:32.337Z,69.00
2023-04-09T09:47:04.467Z,68.90
2023-04-09T09:49:32.500Z,70.40
2023-04-09T09:52:02.847Z,68.90
2023-04-09T09:54:43.179Z,68.80
2023-04-09T09:57:13.547Z,68.80
2023-04-09T09:59:44.822Z,68.40
2023-04-09T10:02:20.607Z,68.40
2023-04-09T10:04:50.797Z,67.90
2023-04-09T10:07:20.911Z,67.70
2023-04-09T10:09:52.848Z,68.60
2023-04-09T10:12:24.231Z,69.20
2023-04-09T10:14:53.153Z,68.00
2023-04-09T10:17:22.721Z,67.80
2023-04-09T10:20:02.527Z,66.60
2023-04-09T10:22:33.060Z,66.00
2023-04-09T10:25:01.352Z,65.90
2023-04-09T10:27:29.427Z,66.70
2023-04-09T10:29:57.860Z,66.70
2023-04-09T10:32:28.321Z,66.60
2023-04-09T10:34:59.271Z,67.80
2023-04-09T10:37:29.848Z,66.50
2023-04-09T10:39:58.707Z,68.40
2023-04-09T10:42:33.136Z,67.30
2023-04-09T10:45:09.345Z,66.10
2023-04-09T10:47:40.213Z,66.80
2023-04-09T10:50:18.981Z,66.30
2023-04-09T10:52:47.206Z,66.60
2023-04-09T10:55:33.935Z,65.60
2023-04-09T10:58:01.969Z,65.90
2023-04-09T11:00:30.275Z,65.70
2023-04-09T11:03:29.102Z,65.30
2023-04-09T11:06:01.495Z,65.20
2023-04-09T11:08:31.353Z,65.20
2023-04-09T11:11:01.364Z,64.00
2023-04-09T11:13:31.341Z,64.90
2023-04-09T11:16:01.363Z,65.00
2023-04-09T11:18:33.895Z,66.40
2023-04-09T11:21:03.881Z,65.10
2023-04-09T11:23:33.519Z,64.40
2023-04-09T11:26:01.840Z,64.10
2023-04-09T11:28:29.883Z,63.90
2023-04-09T11:30:57.951Z,63.50
2023-04-09T11:33:34.375Z,63.30
2023-04-09T11:36:02.839Z,62.90
2023-04-09T11:38:32.609Z,62.10
2023-04-09T11:41:01.371Z,62.40
2023-04-09T11:43:29.364Z,62.30
2023-04-09T11:45:57.790Z,62.40
2023-04-09T11:48:26.090Z,61.90
2023-04-09T11:50:55.774Z,61.60
2023-04-09T11:53:24.592Z,61.40
2023-04-09T11:55:53.959Z,61.00
2023-04-09T11:58:23.789Z,60.90
2023-04-09T12:00:54.247Z,61.90
2023-04-09T12:03:29.747Z,61.80
2023-04-09T12:06:02.031Z,60.60
2023-04-09T12:08:31.139Z,60.40
2023-04-09T12:11:08.462Z,60.20
2023-04-09T12:13:36.510Z,59.90
2023-04-09T12:16:04.620Z,59.60
2023-04-09T12:18:32.623Z,59.40
2023-04-09T12:21:02.668Z,60.30
2023-04-09T12:23:31.427Z,59.70
2023-04-09T12:26:01.234Z,59.50
2023-04-09T12:28:29.927Z,59.60
2023-04-09T12:30:59.413Z,60.20
2023-04-09T12:33:27.509Z,60.00
2023-04-09T12:35:56.139Z,60.40
2023-04-09T12:38:26.659Z,60.70
2023-04-09T12:40:54.913Z,59.70
2023-04-09T12:43:22.948Z,59.60
2023-04-09T12:45:52.850Z,59.60
2023-04-09T12:48:20.893Z,60.20
2023-04-09T12:50:48.851Z,60.20
2023-04-09T12:53:16.831Z,59.90
2023-04-09T12:55:46.291Z,60.20
2023-04-09T12:58:14.347Z,59.90
2023-04-09T13:00:42.786Z,58.90
2023-04-09T13:03:11.907Z,58.70
2023-04-09T13:05:40.006Z,58.20
2023-04-09T13:08:08.077Z,58.20
2023-04-09T13:10:36.448Z,57.80
2023-04-09T13:13:07.000Z,57.50
2023-04-09T13:15:35.285Z,58.50
2023-04-09T13:18:03.419Z,57.60
2023-04-09T13:20:31.676Z,58.30
2023-04-09T13:22:59.609Z,57.00
2023-04-09T13:25:27.684Z,58.00
2023-04-09T13:27:55.741Z,57.50
2023-04-09T13:30:26.279Z,57.10
2023-04-09T13:32:54.405Z,57.20
2023-04-09T13:35:22.537Z,56.20
2023-04-09T13:37:50.476Z,56.70
2023-04-09T13:40:18.624Z,56.10
2023-04-09T13:42:46.804Z,56.60
2023-04-09T13:45:14.836Z,57.10
2023-04-09T13:47:44.244Z,57.00
2023-04-09T13:50:13.787Z,56.80
2023-04-09T13:52:41.774Z,57.70
2023-04-09T13:55:11.527Z,57.10
2023-04-09T13:57:39.588Z,57.60
2023-04-09T14:00:08.916Z,57.00
2023-04-09T14:02:36.853Z,56.90
2023-04-09T14:05:07.077Z,57.20
2023-04-09T14:07:35.401Z,56.40
2023-04-09T14:10:03.496Z,56.50
2023-04-09T14:12:31.611Z,56.70
2023-04-09T14:14:59.594Z,56.10
2023-04-09T14:17:27.895Z,56.40
2023-04-09T14:19:57.809Z,56.10
2023-04-09T14:22:29.710Z,55.70
2023-04-09T14:24:57.726Z,55.40
2023-04-09T14:27:25.951Z,54.90
2023-04-09T14:29:54.134Z,54.70
2023-04-09T14:32:22.162Z,54.70
2023-04-09T14:34:50.401Z,56.20
2023-04-09T14:37:18.371Z,55.50
2023-04-09T14:39:47.664Z,55.40
2023-04-09T14:42:15.708Z,54.60
2023-04-09T14:44:43.746Z,54.20
2023-04-09T14:47:11.896Z,54.10
2023-04-09T14:49:39.915Z,54.30
2023-04-09T14:52:08.028Z,54.20
2023-04-09T14:54:37.746Z,54.00
2023-04-09T14:57:07.114Z,54.60
2023-04-09T14:59:35.972Z,54.90
2023-04-09T15:02:04.114Z,55.90
2023-04-09T15:04:32.337Z,55.90
2023-04-09T15:07:00.446Z,55.00
2023-04-09T15:09:28.447Z,54.40
2023-04-09T15:11:57.044Z,54.10
2023-04-09T15:14:30.558Z,52.10
2023-04-09T15:16:58.735Z,49.30
2023-04-09T15:19:26.732Z,48.80
2023-04-09T15:21:54.728Z,47.20
2023-04-09T15:24:22.736Z,46.20
2023-04-09T15:26:50.989Z,44.90
2023-04-09T15:29:18.993Z,43.60
2023-04-09T15:31:49.066Z,43.50
2023-04-09T15:34:17.078Z,42.70
2023-04-09T15:36:46.169Z,41.90
2023-04-09T15:39:14.291Z,42.60
2023-04-09T15:41:42.233Z,43.50
2023-04-09T15:44:10.334Z,43.80
2023-04-09T15:46:39.223Z,44.70
2023-04-09T15:49:08.580Z,44.90
2023-04-09T15:51:36.564Z,44.40
2023-04-09T15:54:04.637Z,44.10
2023-04-09T15:56:32.933Z,42.80
2023-04-09T15:59:02.080Z,42.00
2023-04-09T16:01:30.150Z,41.70
2023-04-09T16:03:58.263Z,41.70
2023-04-09T16:06:27.953Z,42.80
2023-04-09T16:08:56.534Z,43.70
2023-04-09T16:11:24.604Z,43.20
2023-04-09T16:13:52.576Z,42.40
2023-04-09T16:16:21.114Z,42.20
2023-04-09T16:18:49.105Z,41.30
2023-04-09T16:21:17.162Z,42.50
2023-04-09T16:23:46.645Z,43.10
2023-04-09T16:26:14.595Z,43.00
2023-04-09T16:28:42.646Z,41.50
2023-04-09T16:31:10.708Z,40.70
2023-04-09T16:33:38.766Z,39.80
2023-04-09T16:36:07.477Z,39.20
2023-04-09T16:38:35.458Z,39.30
2023-04-09T16:41:04.845Z,37.90
2023-04-09T16:43:32.838Z,37.60
2023-04-09T16:46:00.841Z,37.40
2023-04-09T16:48:28.876Z,36.90
2023-04-09T16:50:56.896Z,35.90
2023-04-09T16:53:24.985Z,35.40
2023-04-09T16:55:53.037Z,35.10
2023-04-09T16:58:22.468Z,34.90
2023-04-09T17:00:51.964Z,34.80
2023-04-09T17:03:20.325Z,35.40
2023-04-09T17:05:49.473Z,35.40
2023-04-09T17:08:17.980Z,36.10
2023-04-09T17:10:46.150Z,36.00
2023-04-09T17:13:14.237Z,35.60
2023-04-09T17:15:43.760Z,35.80
2023-04-09T17:18:11.734Z,36.10
2023-04-09T17:20:39.704Z,36.20
2023-04-09T17:23:07.732Z,36.40
2023-04-09T17:25:35.704Z,36.30
2023-04-09T17:28:04.833Z,36.00
2023-04-09T17:30:33.212Z,36.40
2023-04-09T17:33:02.717Z,37.00
2023-04-09T17:35:30.783Z,37.90
2023-04-09T17:37:58.761Z,38.40
2023-04-09T17:40:28.037Z,38.70
2023-04-09T17:42:56.099Z,39.30
2023-04-09T17:45:24.169Z,40.30
2023-04-09T17:47:52.209Z,41.00
2023-04-09T17:50:21.670Z,41.70
2023-04-09T17:52:50.604Z,42.50
2023-04-09T17:55:19.329Z,43.30
2023-04-09T17:57:47.632Z,44.60
2023-04-09T18:00:16.707Z,44.70
2023-04-09T18:02:47.715Z,45.60
2023-04-09T18:05:16.338Z,45.70
2023-04-09T18:07:45.845Z,46.40
2023-04-09T18:10:13.805Z,47.00
2023-04-09T18:12:41.851Z,47.20
2023-04-09T18:15:11.024Z,47.70
2023-04-09T18:17:39.152Z,47.90
2023-04-09T18:20:08.308Z,48.50
2023-04-09T18:22:36.337Z,48.90
2023-04-09T18:25:07.043Z,49.30
2023-04-09T18:27:35.108Z,49.60
2023-04-09T18:30:03.724Z,50.40
2023-04-09T18:32:32.373Z,50.40
2023-04-09T18:35:01.003Z,51.20
2023-04-09T18:37:29.171Z,51.50
2023-04-09T18:39:57.545Z,51.80
2023-04-09T18:42:26.942Z,52.70
2023-04-09T18:44:54.848Z,52.70
2023-04-09T18:47:22.916Z,52.70
2023-04-09T18:49:50.998Z,52.80
2023-04-09T18:52:18.997Z,52.90
2023-04-09T18:54:48.198Z,53.20
2023-04-09T18:57:16.782Z,53.70
2023-04-09T18:59:48.173Z,53.70
2023-04-09T19:02:16.285Z,53.70
2023-04-09T19:04:45.078Z,54.00
2023-04-09T19:07:13.282Z,54.60
2023-04-09T19:09:41.762Z,55.40
2023-04-09T19:12:09.870Z,55.50
2023-04-09T19:14:40.104Z,55.90
2023-04-09T19:17:09.565Z,56.30
2023-04-09T19:19:37.575Z,57.00
2023-04-09T19:22:05.533Z,57.30
2023-04-09T19:24:33.517Z,57.60
2023-04-09T19:27:08.006Z,58.00
2023-04-09T19:29:36.195Z,58.00
2023-04-09T19:32:04.370Z,58.40
2023-04-09T19:34:33.781Z,58.70
2023-04-09T19:37:02.454Z,59.20
2023-04-09T19:39:30.408Z,59.60
2023-04-09T19:41:58.430Z,59.80
2023-04-09T19:44:26.386Z,60.10
2023-04-09T19:46:54.366Z,59.90
2023-04-09T19:49:22.315Z,60.30
2023-04-09T19:51:51.835Z,60.10
2023-04-09T19:54:19.796Z,58.80
2023-04-09T19:56:47.765Z,59.00
2023-04-09T19:59:15.751Z,59.40
2023-04-09T20:01:43.954Z,59.30
2023-04-09T20:04:13.058Z,58.80
2023-04-09T20:06:41.632Z,58.90
2023-04-09T20:09:12.360Z,59.60
2023-04-09T20:11:40.528Z,59.70
2023-04-09T20:14:08.544Z,59.90
2023-04-09T20:16:36.712Z,59.60
2023-04-09T20:19:04.752Z,59.30
2023-04-09T20:21:32.711Z,58.80
2023-04-09T20:24:00.706Z,59.40
2023-04-09T20:26:30.024Z,59.80
2023-04-09T20:28:58.077Z,59.40
2023-04-09T20:31:27.858Z,60.20
2023-04-09T20:33:55.856Z,59.90
2023-04-09T20:36:23.873Z,59.60
2023-04-09T20:38:52.181Z,59.60
2023-04-09T20:41:20.366Z,59.70
2023-04-09T20:43:49.749Z,59.70
2023-04-09T20:46:17.820Z,59.20
2023-04-09T20:48:45.914Z,59.40
2023-04-09T20:51:14.789Z,59.40
2023-04-09T20:53:42.792Z,59.30
2023-04-09T20:56:10.796Z,59.40
2023-04-09T20:58:38.930Z,59.40
2023-04-09T21:01:10.315Z,59.30
2023-04-09T21:03:40.021Z,59.30
2023-04-09T21:06:08.605Z,59.30
2023-04-09T21:08:38.428Z,59.40
2023-04-09T21:11:06.701Z,59.40
2023-04-09T21:13:46.875Z,59.30
2023-04-09T21:16:23.194Z,59.30
2023-04-09T21:18:51.621Z,59.90
2023-04-09T21:21:19.940Z,59.50
2023-04-09T21:23:49.981Z,60.30
2023-04-09T21:26:17.968Z,60.20
2023-04-09T21:28:50.294Z,60.60
2023-04-09T21:31:18.352Z,61.00
2023-04-09T21:33:47.757Z,60.70
2023-04-09T21:36:15.781Z,61.30
2023-04-09T21:38:43.868Z,61.20
2023-04-09T21:41:11.799Z,61.20
2023-04-09T21:43:39.800Z,61.10
2023-04-09T21:46:08.011Z,61.10
2023-04-09T21:48:37.230Z,60.70
2023-04-09T21:51:10.509Z,60.90
2023-04-09T21:53:38.747Z,60.80
2023-04-09T21:56:08.077Z,60.70
2023-04-09T21:58:36.132Z,60.70
2023-04-09T22:01:04.187Z,60.70
2023-04-09T22:03:32.629Z,60.60
2023-04-09T22:06:00.755Z,60.80
2023-04-09T22:08:30.532Z,61.00
2023-04-09T22:10:58.443Z,60.90
2023-04-09T22:13:27.283Z,61.20
2023-04-09T22:15:55.289Z,61.90
2023-04-09T22:18:23.338Z,62.30
2023-04-09T22:20:51.404Z,62.50
2023-04-09T22:23:19.387Z,62.70
2023-04-09T22:25:48.801Z,62.90
2023-04-09T22:28:16.767Z,63.20
2023-04-09T22:30:45.210Z,63.30
2023-04-09T22:33:13.201Z,62.90
2023-04-09T22:35:41.245Z,62.70
2023-04-09T22:38:09.979Z,63.40
2023-04-09T22:40:37.937Z,63.70
2023-04-09T22:43:07.379Z,63.90
2023-04-09T22:45:35.285Z,64.40
2023-04-09T22:48:03.327Z,64.50
2023-04-09T22:50:31.383Z,64.60
2023-04-09T22:53:00.319Z,64.60
2023-04-09T22:55:28.702Z,64.90
2023-04-09T22:57:57.977Z,65.00
2023-04-09T23:00:27.343Z,65.30
2023-04-09T23:02:55.520Z,65.60
2023-04-09T23:05:23.786Z,65.80
2023-04-09T23:07:52.331Z,66.10
2023-04-09T23:10:20.955Z,66.50
2023-04-09T23:12:49.452Z,66.80
2023-04-09T23:15:17.587Z,66.70
2023-04-09T23:17:46.957Z,66.80
2023-04-09T23:20:15.420Z,66.90
2023-04-09T23:22:43.431Z,67.20
2023-04-09T23:25:11.410Z,67.40
2023-04-09T23:27:39.373Z,67.50
2023-04-09T23:30:08.779Z,67.40
2023-04-09T23:32:36.978Z,67.20
2023-04-09T23:35:07.171Z,67.20
2023-04-09T23:37:35.331Z,67.50
2023-04-09T23:40:03.787Z,67.90
2023-04-09T23:42:33.876Z,68.00
2023-04-09T23:45:04.285Z,68.00
2023-04-09T23:47:33.539Z,68.30
2023-04-09T23:50:04.715Z,68.50
2023-04-09T23:52:34.924Z,68.70
2023-04-09T23:55:03.292Z,68.80
2023-04-09T23:57:31.375Z,68.80
2023-04-09T23:59:59.373Z,68.90
